sensor_id;sensor_type;location;lat;lon;timestamp;P1;durP1;ratioP1;P2;durP2;ratioP2
10617;SDS011;5356;43.526;26.534;2023-07-30T00:01:55;2.92;;;2.70;;
10617;SDS011;5356;43.526;26.534;2023-07-30T00:04:21;2.65;;;1.90;;
10617;SDS011;5356;43.526;26.534;2023-07-30T00:06:46;2.65;;;2.17;;
10617;SDS011;5356;43.526;26.534;2023-07-30T00:09:12;2.70;;;2.30;;
10617;SDS011;5356;43.526;26.534;2023-07-30T00:11:37;2.72;;;2.25;;
10617;SDS011;5356;43.526;26.534;2023-07-30T00:14:03;3.05;;;2.40;;
10617;SDS011;5356;43.526;26.534;2023-07-30T00:16:29;3.45;;;2.03;;
10617;SDS011;5356;43.526;26.534;2023-07-30T00:18:54;2.92;;;2.17;;
10617;SDS011;5356;43.526;26.534;2023-07-30T00:21:20;3.22;;;2.40;;
10617;SDS011;5356;43.526;26.534;2023-07-30T00:23:45;2.40;;;2.20;;
10617;SDS011;5356;43.526;26.534;2023-07-30T00:26:11;2.70;;;2.00;;
10617;SDS011;5356;43.526;26.534;2023-07-30T00:28:36;3.53;;;1.92;;
10617;SDS011;5356;43.526;26.534;2023-07-30T00:31:02;2.20;;;2.00;;
10617;SDS011;5356;43.526;26.534;2023-07-30T00:33:27;3.38;;;2.40;;
10617;SDS011;5356;43.526;26.534;2023-07-30T00:35:53;2.17;;;1.77;;
10617;SDS011;5356;43.526;26.534;2023-07-30T00:38:19;2.88;;;2.30;;
10617;SDS011;5356;43.526;26.534;2023-07-30T00:40:44;3.58;;;2.28;;
10617;SDS011;5356;43.526;26.534;2023-07-30T00:43:10;2.60;;;2.03;;
10617;SDS011;5356;43.526;26.534;2023-07-30T00:45:36;2.83;;;2.30;;
10617;SDS011;5356;43.526;26.534;2023-07-30T00:48:03;3.70;;;2.08;;
10617;SDS011;5356;43.526;26.534;2023-07-30T00:50:29;3.28;;;2.10;;
10617;SDS011;5356;43.526;26.534;2023-07-30T00:52:55;3.22;;;2.33;;
10617;SDS011;5356;43.526;26.534;2023-07-30T00:55:21;2.83;;;2.13;;
10617;SDS011;5356;43.526;26.534;2023-07-30T00:57:46;3.03;;;2.20;;
10617;SDS011;5356;43.526;26.534;2023-07-30T01:00:13;2.60;;;2.05;;
10617;SDS011;5356;43.526;26.534;2023-07-30T01:02:39;3.83;;;2.20;;
10617;SDS011;5356;43.526;26.534;2023-07-30T01:05:05;3.63;;;2.35;;
10617;SDS011;5356;43.526;26.534;2023-07-30T01:07:31;3.08;;;2.25;;
10617;SDS011;5356;43.526;26.534;2023-07-30T01:09:57;2.40;;;1.85;;
10617;SDS011;5356;43.526;26.534;2023-07-30T01:12:23;3.30;;;2.40;;
10617;SDS011;5356;43.526;26.534;2023-07-30T01:14:51;2.90;;;2.20;;
10617;SDS011;5356;43.526;26.534;2023-07-30T01:17:19;2.88;;;2.20;;
10617;SDS011;5356;43.526;26.534;2023-07-30T01:19:45;2.65;;;1.90;;
10617;SDS011;5356;43.526;26.534;2023-07-30T01:22:10;3.30;;;2.25;;
10617;SDS011;5356;43.526;26.534;2023-07-30T01:24:36;3.03;;;2.40;;
10617;SDS011;5356;43.526;26.534;2023-07-30T01:27:02;2.13;;;1.85;;
10617;SDS011;5356;43.526;26.534;2023-07-30T01:32:31;2.83;;;2.20;;
10617;SDS011;5356;43.526;26.534;2023-07-30T01:34:57;2.80;;;2.10;;
10617;SDS011;5356;43.526;26.534;2023-07-30T01:37:24;3.08;;;1.92;;
10617;SDS011;5356;43.526;26.534;2023-07-30T01:39:51;6.07;;;2.20;;
10617;SDS011;5356;43.526;26.534;2023-07-30T01:42:17;4.07;;;2.45;;
10617;SDS011;5356;43.526;26.534;2023-07-30T01:44:43;2.75;;;2.30;;
10617;SDS011;5356;43.526;26.534;2023-07-30T01:47:08;2.63;;;2.20;;
10617;SDS011;5356;43.526;26.534;2023-07-30T01:49:34;3.63;;;2.10;;
10617;SDS011;5356;43.526;26.534;2023-07-30T01:51:59;2.85;;;2.10;;
10617;SDS011;5356;43.526;26.534;2023-07-30T01:54:25;3.53;;;2.08;;
10617;SDS011;5356;43.526;26.534;2023-07-30T01:56:50;2.63;;;2.17;;
10617;SDS011;5356;43.526;26.534;2023-07-30T01:59:15;3.63;;;2.40;;
10617;SDS011;5356;43.526;26.534;2023-07-30T02:01:41;3.00;;;2.60;;
10617;SDS011;5356;43.526;26.534;2023-07-30T02:04:07;2.78;;;2.33;;
10617;SDS011;5356;43.526;26.534;2023-07-30T02:06:32;4.03;;;2.20;;
10617;SDS011;5356;43.526;26.534;2023-07-30T02:08:58;3.15;;;2.70;;
10617;SDS011;5356;43.526;26.534;2023-07-30T02:11:23;2.88;;;2.13;;
10617;SDS011;5356;43.526;26.534;2023-07-30T02:13:49;2.97;;;2.20;;
10617;SDS011;5356;43.526;26.534;2023-07-30T02:16:14;4.13;;;2.80;;
10617;SDS011;5356;43.526;26.534;2023-07-30T02:18:40;4.00;;;2.75;;
10617;SDS011;5356;43.526;26.534;2023-07-30T02:21:05;3.13;;;2.30;;
10617;SDS011;5356;43.526;26.534;2023-07-30T02:23:31;2.58;;;2.05;;
10617;SDS011;5356;43.526;26.534;2023-07-30T02:25:56;2.95;;;2.20;;
10617;SDS011;5356;43.526;26.534;2023-07-30T02:28:21;4.38;;;2.28;;
10617;SDS011;5356;43.526;26.534;2023-07-30T02:30:47;3.45;;;2.67;;
10617;SDS011;5356;43.526;26.534;2023-07-30T02:33:12;3.25;;;2.47;;
10617;SDS011;5356;43.526;26.534;2023-07-30T02:35:38;3.72;;;2.80;;
10617;SDS011;5356;43.526;26.534;2023-07-30T02:38:03;3.78;;;3.10;;
10617;SDS011;5356;43.526;26.534;2023-07-30T02:40:29;3.88;;;2.63;;
10617;SDS011;5356;43.526;26.534;2023-07-30T02:42:54;4.40;;;2.67;;
10617;SDS011;5356;43.526;26.534;2023-07-30T02:45:19;3.22;;;2.25;;
10617;SDS011;5356;43.526;26.534;2023-07-30T02:47:45;4.10;;;2.85;;
10617;SDS011;5356;43.526;26.534;2023-07-30T02:50:10;5.28;;;2.40;;
10617;SDS011;5356;43.526;26.534;2023-07-30T02:52:36;2.97;;;2.05;;
10617;SDS011;5356;43.526;26.534;2023-07-30T02:55:01;4.05;;;2.97;;
10617;SDS011;5356;43.526;26.534;2023-07-30T02:57:27;2.88;;;2.25;;
10617;SDS011;5356;43.526;26.534;2023-07-30T02:59:53;3.55;;;2.30;;
10617;SDS011;5356;43.526;26.534;2023-07-30T03:02:18;2.50;;;2.30;;
10617;SDS011;5356;43.526;26.534;2023-07-30T03:04:43;3.80;;;2.50;;
10617;SDS011;5356;43.526;26.534;2023-07-30T03:07:09;4.65;;;2.50;;
10617;SDS011;5356;43.526;26.534;2023-07-30T03:09:34;2.58;;;2.13;;
10617;SDS011;5356;43.526;26.534;2023-07-30T03:12:00;3.67;;;2.72;;
10617;SDS011;5356;43.526;26.534;2023-07-30T03:14:25;5.15;;;2.33;;
10617;SDS011;5356;43.526;26.534;2023-07-30T03:16:51;2.67;;;2.30;;
10617;SDS011;5356;43.526;26.534;2023-07-30T03:19:17;3.67;;;2.40;;
10617;SDS011;5356;43.526;26.534;2023-07-30T03:21:42;3.47;;;2.55;;
10617;SDS011;5356;43.526;26.534;2023-07-30T03:24:08;4.13;;;2.50;;
10617;SDS011;5356;43.526;26.534;2023-07-30T03:26:33;3.28;;;2.08;;
10617;SDS011;5356;43.526;26.534;2023-07-30T03:28:59;3.50;;;2.20;;
10617;SDS011;5356;43.526;26.534;2023-07-30T03:31:24;4.28;;;2.67;;
10617;SDS011;5356;43.526;26.534;2023-07-30T03:33:50;2.97;;;2.38;;
10617;SDS011;5356;43.526;26.534;2023-07-30T03:36:16;3.80;;;2.55;;
10617;SDS011;5356;43.526;26.534;2023-07-30T03:38:42;3.65;;;2.58;;
10617;SDS011;5356;43.526;26.534;2023-07-30T03:41:07;3.92;;;2.50;;
10617;SDS011;5356;43.526;26.534;2023-07-30T03:43:34;3.55;;;2.88;;
10617;SDS011;5356;43.526;26.534;2023-07-30T03:46:00;3.67;;;2.28;;
10617;SDS011;5356;43.526;26.534;2023-07-30T03:48:26;4.55;;;3.15;;
10617;SDS011;5356;43.526;26.534;2023-07-30T03:50:55;5.43;;;3.47;;
10617;SDS011;5356;43.526;26.534;2023-07-30T03:53:21;3.60;;;3.03;;
10617;SDS011;5356;43.526;26.534;2023-07-30T03:55:47;5.30;;;3.58;;
10617;SDS011;5356;43.526;26.534;2023-07-30T03:58:12;3.70;;;2.78;;
10617;SDS011;5356;43.526;26.534;2023-07-30T04:00:38;4.38;;;3.28;;
10617;SDS011;5356;43.526;26.534;2023-07-30T04:03:04;5.07;;;3.15;;
10617;SDS011;5356;43.526;26.534;2023-07-30T04:05:30;5.53;;;3.13;;
10617;SDS011;5356;43.526;26.534;2023-07-30T04:07:55;4.65;;;3.28;;
10617;SDS011;5356;43.526;26.534;2023-07-30T04:10:21;4.30;;;3.42;;
10617;SDS011;5356;43.526;26.534;2023-07-30T04:12:47;5.68;;;3.97;;
10617;SDS011;5356;43.526;26.534;2023-07-30T04:15:12;3.90;;;3.38;;
10617;SDS011;5356;43.526;26.534;2023-07-30T04:17:39;4.70;;;3.38;;
10617;SDS011;5356;43.526;26.534;2023-07-30T04:20:05;5.30;;;3.40;;
10617;SDS011;5356;43.526;26.534;2023-07-30T04:22:31;4.22;;;3.35;;
10617;SDS011;5356;43.526;26.534;2023-07-30T04:24:56;6.15;;;3.25;;
10617;SDS011;5356;43.526;26.534;2023-07-30T04:27:22;3.45;;;2.83;;
10617;SDS011;5356;43.526;26.534;2023-07-30T04:29:47;3.95;;;3.08;;
10617;SDS011;5356;43.526;26.534;2023-07-30T04:32:13;2.92;;;2.63;;
10617;SDS011;5356;43.526;26.534;2023-07-30T04:34:38;2.97;;;2.40;;
10617;SDS011;5356;43.526;26.534;2023-07-30T04:37:04;3.65;;;2.63;;
10617;SDS011;5356;43.526;26.534;2023-07-30T04:39:30;3.22;;;2.92;;
10617;SDS011;5356;43.526;26.534;2023-07-30T04:41:57;3.30;;;2.40;;
10617;SDS011;5356;43.526;26.534;2023-07-30T04:44:23;3.35;;;2.53;;
10617;SDS011;5356;43.526;26.534;2023-07-30T04:46:48;3.42;;;2.80;;
10617;SDS011;5356;43.526;26.534;2023-07-30T04:49:13;3.75;;;2.55;;
10617;SDS011;5356;43.526;26.534;2023-07-30T04:51:39;3.75;;;2.55;;
10617;SDS011;5356;43.526;26.534;2023-07-30T04:54:04;4.00;;;2.83;;
10617;SDS011;5356;43.526;26.534;2023-07-30T04:56:30;4.07;;;2.83;;
10617;SDS011;5356;43.526;26.534;2023-07-30T04:58:55;3.88;;;2.45;;
10617;SDS011;5356;43.526;26.534;2023-07-30T05:01:21;2.78;;;2.35;;
10617;SDS011;5356;43.526;26.534;2023-07-30T05:03:46;3.67;;;3.05;;
10617;SDS011;5356;43.526;26.534;2023-07-30T05:06:11;2.92;;;2.63;;
10617;SDS011;5356;43.526;26.534;2023-07-30T05:08:37;3.72;;;2.33;;
10617;SDS011;5356;43.526;26.534;2023-07-30T05:11:02;2.67;;;2.40;;
10617;SDS011;5356;43.526;26.534;2023-07-30T05:13:28;3.35;;;2.55;;
10617;SDS011;5356;43.526;26.534;2023-07-30T05:15:53;3.10;;;2.60;;
10617;SDS011;5356;43.526;26.534;2023-07-30T05:18:19;3.20;;;2.45;;
10617;SDS011;5356;43.526;26.534;2023-07-30T05:20:47;3.17;;;2.25;;
10617;SDS011;5356;43.526;26.534;2023-07-30T05:23:13;3.83;;;2.42;;
10617;SDS011;5356;43.526;26.534;2023-07-30T05:25:39;3.38;;;2.58;;
10617;SDS011;5356;43.526;26.534;2023-07-30T05:28:05;3.45;;;2.85;;
10617;SDS011;5356;43.526;26.534;2023-07-30T05:30:30;3.67;;;2.60;;
10617;SDS011;5356;43.526;26.534;2023-07-30T05:32:55;3.42;;;2.38;;
10617;SDS011;5356;43.526;26.534;2023-07-30T05:35:21;2.88;;;2.50;;
10617;SDS011;5356;43.526;26.534;2023-07-30T05:37:46;4.60;;;2.60;;
10617;SDS011;5356;43.526;26.534;2023-07-30T05:40:12;2.75;;;2.30;;
10617;SDS011;5356;43.526;26.534;2023-07-30T05:42:37;3.67;;;2.72;;
10617;SDS011;5356;43.526;26.534;2023-07-30T05:45:03;4.75;;;3.28;;
10617;SDS011;5356;43.526;26.534;2023-07-30T05:47:29;4.60;;;2.75;;
10617;SDS011;5356;43.526;26.534;2023-07-30T05:49:54;4.78;;;2.75;;
10617;SDS011;5356;43.526;26.534;2023-07-30T05:52:19;5.03;;;2.67;;
10617;SDS011;5356;43.526;26.534;2023-07-30T05:54:45;3.20;;;2.42;;
10617;SDS011;5356;43.526;26.534;2023-07-30T05:57:10;4.82;;;2.67;;
10617;SDS011;5356;43.526;26.534;2023-07-30T05:59:36;3.80;;;2.90;;
10617;SDS011;5356;43.526;26.534;2023-07-30T06:02:02;2.78;;;2.35;;
10617;SDS011;5356;43.526;26.534;2023-07-30T06:04:28;3.88;;;2.47;;
10617;SDS011;5356;43.526;26.534;2023-07-30T06:06:54;3.17;;;2.80;;
10617;SDS011;5356;43.526;26.534;2023-07-30T06:09:19;2.17;;;1.88;;
10617;SDS011;5356;43.526;26.534;2023-07-30T06:11:45;5.63;;;2.67;;
10617;SDS011;5356;43.526;26.534;2023-07-30T06:14:10;5.00;;;2.80;;
10617;SDS011;5356;43.526;26.534;2023-07-30T06:16:36;3.58;;;2.35;;
10617;SDS011;5356;43.526;26.534;2023-07-30T06:19:01;5.68;;;2.67;;
10617;SDS011;5356;43.526;26.534;2023-07-30T06:21:26;2.78;;;2.22;;
10617;SDS011;5356;43.526;26.534;2023-07-30T06:23:53;3.50;;;2.47;;
10617;SDS011;5356;43.526;26.534;2023-07-30T06:26:18;2.70;;;2.40;;
10617;SDS011;5356;43.526;26.534;2023-07-30T06:28:43;4.90;;;2.70;;
10617;SDS011;5356;43.526;26.534;2023-07-30T06:31:09;4.38;;;2.25;;
10617;SDS011;5356;43.526;26.534;2023-07-30T06:33:34;5.45;;;2.55;;
10617;SDS011;5356;43.526;26.534;2023-07-30T06:36:00;6.30;;;2.72;;
10617;SDS011;5356;43.526;26.534;2023-07-30T06:38:25;2.85;;;2.28;;
10617;SDS011;5356;43.526;26.534;2023-07-30T06:40:51;3.15;;;2.03;;
10617;SDS011;5356;43.526;26.534;2023-07-30T06:43:17;3.75;;;2.25;;
10617;SDS011;5356;43.526;26.534;2023-07-30T06:45:42;2.65;;;2.20;;
10617;SDS011;5356;43.526;26.534;2023-07-30T06:48:08;2.92;;;2.28;;
10617;SDS011;5356;43.526;26.534;2023-07-30T06:50:33;3.17;;;2.22;;
10617;SDS011;5356;43.526;26.534;2023-07-30T06:52:58;4.43;;;2.28;;
10617;SDS011;5356;43.526;26.534;2023-07-30T06:55:25;2.85;;;2.13;;
10617;SDS011;5356;43.526;26.534;2023-07-30T06:57:51;3.65;;;2.30;;
10617;SDS011;5356;43.526;26.534;2023-07-30T07:00:16;2.78;;;2.40;;
10617;SDS011;5356;43.526;26.534;2023-07-30T07:02:46;5.28;;;2.35;;
10617;SDS011;5356;43.526;26.534;2023-07-30T07:05:12;3.80;;;2.30;;
10617;SDS011;5356;43.526;26.534;2023-07-30T07:07:38;4.85;;;2.10;;
10617;SDS011;5356;43.526;26.534;2023-07-30T07:10:04;3.22;;;2.10;;
10617;SDS011;5356;43.526;26.534;2023-07-30T07:12:30;2.38;;;2.00;;
10617;SDS011;5356;43.526;26.534;2023-07-30T07:14:56;3.20;;;2.50;;
10617;SDS011;5356;43.526;26.534;2023-07-30T07:17:23;3.88;;;2.42;;
10617;SDS011;5356;43.526;26.534;2023-07-30T07:19:49;3.85;;;2.47;;
10617;SDS011;5356;43.526;26.534;2023-07-30T07:22:14;2.67;;;2.10;;
10617;SDS011;5356;43.526;26.534;2023-07-30T07:24:44;2.65;;;2.05;;
10617;SDS011;5356;43.526;26.534;2023-07-30T07:27:09;2.58;;;2.38;;
10617;SDS011;5356;43.526;26.534;2023-07-30T07:29:36;2.72;;;1.95;;
10617;SDS011;5356;43.526;26.534;2023-07-30T07:32:01;2.97;;;2.00;;
10617;SDS011;5356;43.526;26.534;2023-07-30T07:34:27;1.80;;;1.65;;
10617;SDS011;5356;43.526;26.534;2023-07-30T07:36:52;9.13;;;2.25;;
10617;SDS011;5356;43.526;26.534;2023-07-30T07:39:17;2.40;;;1.60;;
10617;SDS011;5356;43.526;26.534;2023-07-30T07:41:44;2.88;;;2.00;;
10617;SDS011;5356;43.526;26.534;2023-07-30T07:44:09;2.05;;;1.63;;
10617;SDS011;5356;43.526;26.534;2023-07-30T07:46:35;2.13;;;1.77;;
10617;SDS011;5356;43.526;26.534;2023-07-30T07:49:00;1.90;;;1.70;;
10617;SDS011;5356;43.526;26.534;2023-07-30T07:51:25;2.33;;;1.80;;
10617;SDS011;5356;43.526;26.534;2023-07-30T07:53:51;3.05;;;2.13;;
10617;SDS011;5356;43.526;26.534;2023-07-30T07:56:17;2.67;;;1.70;;
10617;SDS011;5356;43.526;26.534;2023-07-30T07:58:42;2.22;;;1.70;;
10617;SDS011;5356;43.526;26.534;2023-07-30T08:01:08;3.70;;;2.10;;
10617;SDS011;5356;43.526;26.534;2023-07-30T08:03:33;2.35;;;1.75;;
10617;SDS011;5356;43.526;26.534;2023-07-30T08:05:59;2.63;;;2.05;;
10617;SDS011;5356;43.526;26.534;2023-07-30T08:08:25;2.58;;;2.03;;
10617;SDS011;5356;43.526;26.534;2023-07-30T08:10:51;2.08;;;1.77;;
10617;SDS011;5356;43.526;26.534;2023-07-30T08:13:16;3.38;;;1.90;;
10617;SDS011;5356;43.526;26.534;2023-07-30T08:15:42;1.60;;;1.50;;
10617;SDS011;5356;43.526;26.534;2023-07-30T08:18:07;2.75;;;1.90;;
10617;SDS011;5356;43.526;26.534;2023-07-30T08:20:33;2.45;;;2.03;;
10617;SDS011;5356;43.526;26.534;2023-07-30T08:22:58;2.25;;;2.05;;
10617;SDS011;5356;43.526;26.534;2023-07-30T08:25:24;2.40;;;1.70;;
10617;SDS011;5356;43.526;26.534;2023-07-30T08:27:49;3.85;;;1.92;;
10617;SDS011;5356;43.526;26.534;2023-07-30T08:30:15;2.28;;;2.03;;
10617;SDS011;5356;43.526;26.534;2023-07-30T08:32:40;2.92;;;2.13;;
10617;SDS011;5356;43.526;26.534;2023-07-30T08:35:08;2.03;;;1.83;;
10617;SDS011;5356;43.526;26.534;2023-07-30T08:37:34;2.28;;;2.08;;
10617;SDS011;5356;43.526;26.534;2023-07-30T08:40:00;2.55;;;1.98;;
10617;SDS011;5356;43.526;26.534;2023-07-30T08:42:25;3.17;;;2.33;;
10617;SDS011;5356;43.526;26.534;2023-07-30T08:44:51;3.17;;;2.17;;
10617;SDS011;5356;43.526;26.534;2023-07-30T08:47:16;3.00;;;1.90;;
10617;SDS011;5356;43.526;26.534;2023-07-30T08:49:41;2.42;;;2.05;;
10617;SDS011;5356;43.526;26.534;2023-07-30T08:52:10;3.72;;;2.13;;
10617;SDS011;5356;43.526;26.534;2023-07-30T08:54:36;3.05;;;2.05;;
10617;SDS011;5356;43.526;26.534;2023-07-30T08:57:04;2.38;;;2.10;;
10617;SDS011;5356;43.526;26.534;2023-07-30T08:59:40;2.50;;;2.08;;
10617;SDS011;5356;43.526;26.534;2023-07-30T09:02:13;3.63;;;2.07;;
10617;SDS011;5356;43.526;26.534;2023-07-30T09:04:47;2.47;;;2.10;;
10617;SDS011;5356;43.526;26.534;2023-07-30T09:07:18;3.83;;;2.03;;
10617;SDS011;5356;43.526;26.534;2023-07-30T09:09:43;2.00;;;1.80;;
10617;SDS011;5356;43.526;26.534;2023-07-30T09:12:13;2.33;;;2.10;;
10617;SDS011;5356;43.526;26.534;2023-07-30T09:14:39;3.67;;;2.13;;
10617;SDS011;5356;43.526;26.534;2023-07-30T09:17:05;2.20;;;1.92;;
10617;SDS011;5356;43.526;26.534;2023-07-30T09:19:34;2.42;;;1.88;;
10617;SDS011;5356;43.526;26.534;2023-07-30T09:22:03;2.30;;;1.70;;
10617;SDS011;5356;43.526;26.534;2023-07-30T09:24:29;2.65;;;2.10;;
10617;SDS011;5356;43.526;26.534;2023-07-30T09:26:55;2.65;;;1.90;;
10617;SDS011;5356;43.526;26.534;2023-07-30T09:29:22;1.98;;;1.80;;
10617;SDS011;5356;43.526;26.534;2023-07-30T09:31:50;2.92;;;2.38;;
10617;SDS011;5356;43.526;26.534;2023-07-30T09:34:24;2.10;;;1.70;;
10617;SDS011;5356;43.526;26.534;2023-07-30T09:36:50;2.03;;;1.75;;
10617;SDS011;5356;43.526;26.534;2023-07-30T09:39:19;1.90;;;1.73;;
10617;SDS011;5356;43.526;26.534;2023-07-30T09:41:46;2.13;;;1.90;;
10617;SDS011;5356;43.526;26.534;2023-07-30T09:44:12;3.47;;;2.47;;
10617;SDS011;5356;43.526;26.534;2023-07-30T09:46:45;2.38;;;2.10;;
10617;SDS011;5356;43.526;26.534;2023-07-30T09:49:12;3.63;;;2.08;;
10617;SDS011;5356;43.526;26.534;2023-07-30T09:51:38;4.82;;;1.88;;
10617;SDS011;5356;43.526;26.534;2023-07-30T09:54:05;3.28;;;2.00;;
10617;SDS011;5356;43.526;26.534;2023-07-30T09:56:32;3.13;;;2.17;;
10617;SDS011;5356;43.526;26.534;2023-07-30T09:58:58;2.83;;;1.80;;
10617;SDS011;5356;43.526;26.534;2023-07-30T10:01:24;2.63;;;2.00;;
10617;SDS011;5356;43.526;26.534;2023-07-30T10:03:54;2.67;;;2.35;;
10617;SDS011;5356;43.526;26.534;2023-07-30T10:06:21;2.58;;;2.00;;
10617;SDS011;5356;43.526;26.534;2023-07-30T10:11:29;2.65;;;1.88;;
10617;SDS011;5356;43.526;26.534;2023-07-30T10:13:54;2.50;;;1.95;;
10617;SDS011;5356;43.526;26.534;2023-07-30T10:16:28;2.10;;;1.90;;
10617;SDS011;5356;43.526;26.534;2023-07-30T10:21:24;3.20;;;1.95;;
10617;SDS011;5356;43.526;26.534;2023-07-30T10:24:00;2.80;;;1.80;;
10617;SDS011;5356;43.526;26.534;2023-07-30T10:26:30;2.47;;;1.83;;
10617;SDS011;5356;43.526;26.534;2023-07-30T10:31:41;2.88;;;2.00;;
10617;SDS011;5356;43.526;26.534;2023-07-30T10:34:09;2.50;;;1.80;;
10617;SDS011;5356;43.526;26.534;2023-07-30T10:36:52;2.55;;;2.03;;
10617;SDS011;5356;43.526;26.534;2023-07-30T10:39:26;4.80;;;2.03;;
10617;SDS011;5356;43.526;26.534;2023-07-30T10:41:54;2.22;;;2.03;;
10617;SDS011;5356;43.526;26.534;2023-07-30T10:46:51;2.15;;;1.98;;
10617;SDS011;5356;43.526;26.534;2023-07-30T10:49:20;1.77;;;1.67;;
10617;SDS011;5356;43.526;26.534;2023-07-30T10:51:46;2.30;;;2.10;;
10617;SDS011;5356;43.526;26.534;2023-07-30T10:54:12;1.90;;;1.70;;
10617;SDS011;5356;43.526;26.534;2023-07-30T10:56:38;2.88;;;2.30;;
10617;SDS011;5356;43.526;26.534;2023-07-30T10:59:05;2.75;;;2.13;;
10617;SDS011;5356;43.526;26.534;2023-07-30T11:01:35;2.10;;;1.90;;
10617;SDS011;5356;43.526;26.534;2023-07-30T11:04:20;2.60;;;2.10;;
10617;SDS011;5356;43.526;26.534;2023-07-30T11:06:49;2.83;;;1.85;;
10617;SDS011;5356;43.526;26.534;2023-07-30T11:11:45;3.15;;;2.10;;
10617;SDS011;5356;43.526;26.534;2023-07-30T11:14:18;2.72;;;1.80;;
10617;SDS011;5356;43.526;26.534;2023-07-30T11:16:48;2.20;;;2.00;;
10617;SDS011;5356;43.526;26.534;2023-07-30T11:19:15;2.80;;;1.98;;
10617;SDS011;5356;43.526;26.534;2023-07-30T11:21:44;2.88;;;2.50;;
10617;SDS011;5356;43.526;26.534;2023-07-30T11:24:13;2.95;;;2.30;;
10617;SDS011;5356;43.526;26.534;2023-07-30T11:26:39;2.78;;;1.83;;
10617;SDS011;5356;43.526;26.534;2023-07-30T11:29:19;2.83;;;2.33;;
10617;SDS011;5356;43.526;26.534;2023-07-30T11:31:45;2.63;;;1.98;;
10617;SDS011;5356;43.526;26.534;2023-07-30T11:34:12;2.58;;;2.03;;
10617;SDS011;5356;43.526;26.534;2023-07-30T11:36:39;2.40;;;2.10;;
10617;SDS011;5356;43.526;26.534;2023-07-30T11:39:08;2.33;;;2.03;;
10617;SDS011;5356;43.526;26.534;2023-07-30T11:41:35;2.00;;;1.80;;
10617;SDS011;5356;43.526;26.534;2023-07-30T11:44:01;2.65;;;2.00;;
10617;SDS011;5356;43.526;26.534;2023-07-30T11:46:26;2.45;;;2.03;;
10617;SDS011;5356;43.526;26.534;2023-07-30T11:48:52;2.13;;;1.90;;
10617;SDS011;5356;43.526;26.534;2023-07-30T11:51:35;3.63;;;2.38;;
10617;SDS011;5356;43.526;26.534;2023-07-30T11:54:00;2.80;;;2.40;;
10617;SDS011;5356;43.526;26.534;2023-07-30T11:56:36;2.08;;;1.88;;
10617;SDS011;5356;43.526;26.534;2023-07-30T11:59:05;2.50;;;2.15;;
10617;SDS011;5356;43.526;26.534;2023-07-30T12:01:32;2.50;;;2.00;;
10617;SDS011;5356;43.526;26.534;2023-07-30T12:04:00;3.05;;;2.17;;
10617;SDS011;5356;43.526;26.534;2023-07-30T12:06:43;2.08;;;1.88;;
10617;SDS011;5356;43.526;26.534;2023-07-30T12:09:19;3.65;;;2.17;;
10617;SDS011;5356;43.526;26.534;2023-07-30T12:14:17;2.63;;;2.00;;
10617;SDS011;5356;43.526;26.534;2023-07-30T12:16:43;2.60;;;2.10;;
10617;SDS011;5356;43.526;26.534;2023-07-30T12:19:08;2.30;;;2.10;;
10617;SDS011;5356;43.526;26.534;2023-07-30T12:21:34;2.47;;;1.90;;
10617;SDS011;5356;43.526;26.534;2023-07-30T12:23:59;3.20;;;1.90;;
10617;SDS011;5356;43.526;26.534;2023-07-30T12:26:25;2.20;;;2.00;;
10617;SDS011;5356;43.526;26.534;2023-07-30T12:28:50;2.30;;;2.10;;
10617;SDS011;5356;43.526;26.534;2023-07-30T12:31:16;1.95;;;1.80;;
10617;SDS011;5356;43.526;26.534;2023-07-30T12:33:42;2.83;;;2.05;;
10617;SDS011;5356;43.526;26.534;2023-07-30T12:36:08;2.85;;;2.20;;
10617;SDS011;5356;43.526;26.534;2023-07-30T12:38:34;2.22;;;2.03;;
10617;SDS011;5356;43.526;26.534;2023-07-30T12:40:59;1.90;;;1.58;;
10617;SDS011;5356;43.526;26.534;2023-07-30T12:43:25;1.80;;;1.67;;
10617;SDS011;5356;43.526;26.534;2023-07-30T12:45:50;2.20;;;2.00;;
10617;SDS011;5356;43.526;26.534;2023-07-30T12:48:16;2.08;;;1.80;;
10617;SDS011;5356;43.526;26.534;2023-07-30T12:50:41;3.03;;;2.17;;
10617;SDS011;5356;43.526;26.534;2023-07-30T12:53:07;2.83;;;2.28;;
10617;SDS011;5356;43.526;26.534;2023-07-30T12:55:32;2.28;;;2.05;;
10617;SDS011;5356;43.526;26.534;2023-07-30T12:57:58;4.28;;;2.03;;
10617;SDS011;5356;43.526;26.534;2023-07-30T13:00:23;3.90;;;1.98;;
10617;SDS011;5356;43.526;26.534;2023-07-30T13:02:49;2.10;;;1.85;;
10617;SDS011;5356;43.526;26.534;2023-07-30T13:05:17;2.35;;;1.95;;
10617;SDS011;5356;43.526;26.534;2023-07-30T13:07:43;4.07;;;2.40;;
10617;SDS011;5356;43.526;26.534;2023-07-30T13:10:09;2.67;;;2.13;;
10617;SDS011;5356;43.526;26.534;2023-07-30T13:12:34;2.58;;;1.80;;
10617;SDS011;5356;43.526;26.534;2023-07-30T13:15:00;2.15;;;1.95;;
10617;SDS011;5356;43.526;26.534;2023-07-30T13:17:27;1.88;;;1.73;;
10617;SDS011;5356;43.526;26.534;2023-07-30T13:19:53;2.40;;;2.20;;
10617;SDS011;5356;43.526;26.534;2023-07-30T13:22:18;3.35;;;2.00;;
10617;SDS011;5356;43.526;26.534;2023-07-30T13:24:44;2.15;;;1.95;;
10617;SDS011;5356;43.526;26.534;2023-07-30T13:27:09;2.17;;;1.98;;
10617;SDS011;5356;43.526;26.534;2023-07-30T13:29:35;5.32;;;2.35;;
10617;SDS011;5356;43.526;26.534;2023-07-30T13:32:01;2.47;;;2.22;;
10617;SDS011;5356;43.526;26.534;2023-07-30T13:34:26;2.20;;;2.00;;
10617;SDS011;5356;43.526;26.534;2023-07-30T13:36:52;2.80;;;2.13;;
10617;SDS011;5356;43.526;26.534;2023-07-30T13:39:18;3.05;;;2.30;;
10617;SDS011;5356;43.526;26.534;2023-07-30T13:41:43;2.88;;;2.00;;
10617;SDS011;5356;43.526;26.534;2023-07-30T13:44:09;2.38;;;1.92;;
10617;SDS011;5356;43.526;26.534;2023-07-30T13:46:36;2.47;;;1.98;;
10617;SDS011;5356;43.526;26.534;2023-07-30T13:49:05;2.63;;;2.10;;
10617;SDS011;5356;43.526;26.534;2023-07-30T13:51:31;2.30;;;2.10;;
10617;SDS011;5356;43.526;26.534;2023-07-30T13:54:00;2.25;;;2.03;;
10617;SDS011;5356;43.526;26.534;2023-07-30T13:56:26;2.70;;;1.88;;
10617;SDS011;5356;43.526;26.534;2023-07-30T13:58:52;2.80;;;2.60;;
10617;SDS011;5356;43.526;26.534;2023-07-30T14:01:18;3.20;;;2.00;;
10617;SDS011;5356;43.526;26.534;2023-07-30T14:03:43;2.45;;;1.98;;
10617;SDS011;5356;43.526;26.534;2023-07-30T14:06:09;2.10;;;2.00;;
10617;SDS011;5356;43.526;26.534;2023-07-30T14:08:35;2.50;;;2.30;;
10617;SDS011;5356;43.526;26.534;2023-07-30T14:11:01;2.97;;;2.13;;
10617;SDS011;5356;43.526;26.534;2023-07-30T14:13:26;2.13;;;1.92;;
10617;SDS011;5356;43.526;26.534;2023-07-30T14:15:52;3.33;;;2.30;;
10617;SDS011;5356;43.526;26.534;2023-07-30T14:18:17;2.63;;;2.20;;
10617;SDS011;5356;43.526;26.534;2023-07-30T14:20:43;3.70;;;2.28;;
10617;SDS011;5356;43.526;26.534;2023-07-30T14:23:08;6.03;;;1.98;;
10617;SDS011;5356;43.526;26.534;2023-07-30T14:25:35;2.85;;;2.20;;
10617;SDS011;5356;43.526;26.534;2023-07-30T14:28:00;2.33;;;2.13;;
10617;SDS011;5356;43.526;26.534;2023-07-30T14:30:26;2.20;;;2.00;;
10617;SDS011;5356;43.526;26.534;2023-07-30T14:32:51;3.55;;;2.20;;
10617;SDS011;5356;43.526;26.534;2023-07-30T14:35:17;3.00;;;2.63;;
10617;SDS011;5356;43.526;26.534;2023-07-30T14:37:42;2.13;;;1.80;;
10617;SDS011;5356;43.526;26.534;2023-07-30T14:40:08;3.97;;;2.00;;
10617;SDS011;5356;43.526;26.534;2023-07-30T14:42:33;1.95;;;1.85;;
10617;SDS011;5356;43.526;26.534;2023-07-30T14:44:59;2.30;;;2.10;;
10617;SDS011;5356;43.526;26.534;2023-07-30T14:47:24;2.80;;;2.50;;
10617;SDS011;5356;43.526;26.534;2023-07-30T14:49:50;1.98;;;1.77;;
10617;SDS011;5356;43.526;26.534;2023-07-30T14:52:16;4.05;;;2.05;;
10617;SDS011;5356;43.526;26.534;2023-07-30T14:54:43;2.10;;;1.90;;
10617;SDS011;5356;43.526;26.534;2023-07-30T14:57:09;2.80;;;2.22;;
10617;SDS011;5356;43.526;26.534;2023-07-30T14:59:34;3.53;;;2.08;;
10617;SDS011;5356;43.526;26.534;2023-07-30T15:02:00;2.30;;;2.10;;